Time;durP1;ratioP1;P1;durP2;ratioP2;P2;SDS_P1;SDS_P2;PMS_P1;PMS_P2;Temp;Humidity;BMP_temperature;BMP_pressure;BME280_temperature;BME280_humidity;BME280_pressure;Samples;Min_cycle;Max_cycle;Signal;HPM_P1;HPM_P2
2023/07/07 00:02:08;;;;;;;11.63;6.27;;;13.60;32.70;;;;;;5074935;27;45857;-72
2023/07/07 00:04:34;;;;;;;9.00;5.37;;;13.70;32.90;;;;;;5077792;27;46525;-72
2023/07/07 00:06:59;;;;;;;12.10;6.00;;;13.70;32.80;;;;;;5080724;27;46812;-71
2023/07/07 00:09:25;;;;;;;10.33;5.60;;;13.70;32.80;;;;;;5079635;27;46530;-73
2023/07/07 00:11:51;;;;;;;13.50;6.00;;;13.70;32.80;;;;;;5075436;27;46481;-71
2023/07/07 00:14:17;;;;;;;16.33;5.50;;;13.70;32.90;;;;;;5075898;27;46673;-70
2023/07/07 00:16:42;;;;;;;8.87;5.20;;;13.70;33.00;;;;;;5075131;27;46443;-71
2023/07/07 00:19:09;;;;;;;15.23;5.13;;;13.70;33.30;;;;;;5061148;27;46568;-71
2023/07/07 00:21:40;;;;;;;16.37;6.00;;;13.60;33.20;;;;;;5075605;27;46495;-73
2023/07/07 00:24:07;;;;;;;11.90;5.53;;;13.60;33.30;;;;;;5075431;27;46594;-71
2023/07/07 00:26:34;;;;;;;8.77;4.97;;;13.60;33.30;;;;;;5078701;27;46535;-74
2023/07/07 00:29:01;;;;;;;19.70;5.70;;;13.70;33.40;;;;;;5076266;27;47064;-70
2023/07/07 00:31:27;;;;;;;11.77;5.93;;;13.70;33.30;;;;;;5076743;27;46510;-70
2023/07/07 00:33:53;;;;;;;12.20;6.37;;;13.70;33.50;;;;;;5076208;27;45863;-72
2023/07/07 00:36:19;;;;;;;10.80;5.13;;;13.70;33.60;;;;;;5078569;27;46828;-71
2023/07/07 00:38:44;;;;;;;10.87;5.67;;;13.60;33.60;;;;;;5079298;27;47104;-71
2023/07/07 00:41:10;;;;;;;12.80;6.27;;;13.60;33.80;;;;;;5079292;27;46147;-72
2023/07/07 00:43:36;;;;;;;9.50;5.00;;;13.50;34.00;;;;;;5077753;27;46285;-72
2023/07/07 00:46:04;;;;;;;9.83;5.43;;;13.40;34.10;;;;;;5079248;27;46647;-71
2023/07/07 00:48:31;;;;;;;9.57;5.93;;;13.40;34.30;;;;;;5082108;27;46231;-72
2023/07/07 00:51:09;;;;;;;12.27;6.20;;;13.40;34.40;;;;;;5074008;27;46519;-72
2023/07/07 00:53:35;;;;;;;9.00;5.00;;;13.30;34.50;;;;;;5080442;27;46447;-75
2023/07/07 00:56:14;;;;;;;12.17;5.43;;;13.30;34.40;;;;;;5078041;27;46418;-73
2023/07/07 00:58:41;;;;;;;9.57;5.13;;;13.20;34.50;;;;;;5070878;27;47637;-72
2023/07/07 01:01:13;;;;;;;11.20;6.03;;;13.20;34.60;;;;;;5076672;27;46320;-72
2023/07/07 01:03:48;;;;;;;10.73;6.23;;;13.20;34.60;;;;;;5072174;27;46762;-71
2023/07/07 01:06:18;;;;;;;13.03;5.80;;;13.20;35.80;;;;;;5077436;27;46494;-74
2023/07/07 01:08:47;;;;;;;8.93;5.00;;;13.20;34.70;;;;;;5078298;27;47133;-72
2023/07/07 01:11:13;;;;;;;12.83;5.43;;;13.10;34.80;;;;;;5078349;27;46475;-72
2023/07/07 01:13:38;;;;;;;12.90;5.97;;;13.10;35.10;;;;;;5071268;27;46486;-70
2023/07/07 01:16:16;;;;;;;9.67;5.53;;;13.10;35.00;;;;;;5074307;27;46602;-71
2023/07/07 01:18:58;;;;;;;10.70;5.47;;;13.00;35.20;;;;;;5072913;27;46513;-70
2023/07/07 01:21:36;;;;;;;9.83;5.77;;;13.00;35.50;;;;;;5072881;27;46529;-73
2023/07/07 01:24:35;;;;;;;10.30;5.70;;;13.00;35.50;;;;;;5075255;27;46918;-73
2023/07/07 01:27:20;;;;;;;10.07;6.40;;;13.00;34.20;;;;;;5074275;27;46469;-71
2023/07/07 01:29:55;;;;;;;11.07;6.50;;;13.00;35.20;;;;;;5073654;27;46419;-72
2023/07/07 01:32:24;;;;;;;8.70;5.50;;;13.00;35.20;;;;;;5079698;27;46647;-72
2023/07/07 01:34:56;;;;;;;9.73;5.73;;;13.00;35.20;;;;;;5080487;27;46672;-72
2023/07/07 01:37:22;;;;;;;12.33;5.63;;;13.00;35.80;;;;;;5081081;27;46460;-71
2023/07/07 01:39:48;;;;;;;8.17;4.83;;;12.90;35.50;;;;;;5083315;27;46905;-71
2023/07/07 01:42:31;;;;;;;11.73;5.60;;;12.90;35.50;;;;;;5081535;27;46422;-71
2023/07/07 01:45:09;;;;;;;8.13;5.07;;;12.80;35.70;;;;;;5080024;27;46500;-72
2023/07/07 01:47:37;;;;;;;10.70;5.77;;;12.80;35.60;;;;;;5076499;27;46465;-71
2023/07/07 01:50:13;;;;;;;14.83;6.33;;;12.80;35.90;;;;;;5061649;27;48163;-74
2023/07/07 01:52:45;;;;;;;11.87;6.73;;;12.70;35.80;;;;;;5061055;28;46457;-72
2023/07/07 01:55:30;;;;;;;9.17;5.30;;;12.70;36.00;;;;;;5082365;27;46367;-71
2023/07/07 01:58:00;;;;;;;21.50;5.93;;;12.60;36.10;;;;;;5064467;27;46333;-71
2023/07/07 02:00:28;;;;;;;8.90;4.80;;;12.60;36.30;;;;;;5082776;27;46426;-71
2023/07/07 02:02:56;;;;;;;11.50;5.70;;;12.50;36.30;;;;;;5080388;27;46454;-71
2023/07/07 02:05:23;;;;;;;14.40;5.80;;;12.50;36.50;;;;;;5081019;27;46570;-71
2023/07/07 02:07:49;;;;;;;8.60;5.20;;;12.40;36.50;;;;;;5080181;27;46473;-70
2023/07/07 02:10:14;;;;;;;11.37;5.53;;;12.40;36.60;;;;;;5063017;27;46623;-71
2023/07/07 02:12:40;;;;;;;9.70;5.50;;;12.30;36.80;;;;;;5081896;27;45852;-71
2023/07/07 02:15:06;;;;;;;19.33;5.70;;;12.20;36.90;;;;;;5082853;27;46418;-72
2023/07/07 02:17:32;;;;;;;12.27;5.93;;;12.20;37.20;;;;;;5081742;27;46533;-71
2023/07/07 02:19:59;;;;;;;10.10;5.60;;;12.10;37.40;;;;;;5062305;27;46396;-71
2023/07/07 02:22:26;;;;;;;11.03;5.77;;;12.00;37.50;;;;;;5076458;27;46420;-72
2023/07/07 02:24:51;;;;;;;13.80;6.10;;;12.00;37.50;;;;;;5078812;27;46439;-70
2023/07/07 02:27:18;;;;;;;13.40;5.90;;;11.90;37.40;;;;;;5078797;27;46460;-71
2023/07/07 02:29:43;;;;;;;12.20;5.47;;;11.90;37.50;;;;;;5078075;27;47279;-71
2023/07/07 02:32:09;;;;;;;13.30;5.00;;;11.90;37.50;;;;;;5059859;28;46925;-70
2023/07/07 02:34:35;;;;;;;11.20;5.80;;;11.90;37.50;;;;;;5077769;27;46563;-72
2023/07/07 02:37:01;;;;;;;10.00;5.00;;;11.90;37.50;;;;;;5079418;27;46652;-72
2023/07/07 02:39:27;;;;;;;15.40;4.87;;;11.90;37.50;;;;;;5079532;27;47640;-71
2023/07/07 02:41:53;;;;;;;8.97;4.63;;;11.80;37.30;;;;;;5078878;27;46492;-72
2023/07/07 02:44:19;;;;;;;11.50;5.03;;;11.80;37.30;;;;;;5080244;27;46624;-71
2023/07/07 02:46:45;;;;;;;10.10;5.63;;;11.90;37.50;;;;;;5061650;28;46515;-71
2023/07/07 02:49:11;;;;;;;11.77;5.77;;;11.90;37.40;;;;;;5078951;27;47075;-73
2023/07/07 02:51:37;;;;;;;16.20;6.40;;;11.80;37.30;;;;;;5078943;27;46392;-71
2023/07/07 02:54:04;;;;;;;13.90;6.73;;;11.90;37.20;;;;;;5078304;27;46794;-71
2023/07/07 02:56:29;;;;;;;13.00;6.63;;;11.90;37.10;;;;;;5074736;27;46447;-72
2023/07/07 02:58:55;;;;;;;11.90;6.33;;;11.90;37.10;;;;;;5073801;28;46407;-71
2023/07/07 03:01:23;;;;;;;11.50;5.87;;;12.00;37.10;;;;;;5081958;27;46474;-71
2023/07/07 03:03:50;;;;;;;12.70;6.17;;;12.00;37.00;;;;;;5077210;27;46381;-71
2023/07/07 03:06:21;;;;;;;10.30;6.07;;;12.00;37.20;;;;;;5077720;27;46911;-72
2023/07/07 03:08:47;;;;;;;11.33;6.03;;;12.00;37.20;;;;;;5077034;27;46387;-71
2023/07/07 03:11:15;;;;;;;11.83;5.60;;;12.10;37.30;;;;;;5079761;27;46417;-71
2023/07/07 03:13:41;;;;;;;13.00;5.57;;;12.00;37.30;;;;;;5079200;27;46649;-72
2023/07/07 03:16:27;;;;;;;21.03;6.63;;;11.90;37.40;;;;;;5077510;27;46476;-71
2023/07/07 03:18:55;;;;;;;14.17;5.50;;;11.90;37.70;;;;;;5075035;27;47112;-71
2023/07/07 03:21:22;;;;;;;15.30;6.13;;;11.80;38.00;;;;;;5078710;27;46365;-72
2023/07/07 03:23:51;;;;;;;15.30;5.60;;;11.70;38.10;;;;;;5076320;27;46657;-71
2023/07/07 03:26:19;;;;;;;15.13;5.80;;;11.80;38.30;;;;;;5077592;27;46527;-71
2023/07/07 03:28:45;;;;;;;18.00;6.40;;;11.80;37.30;;;;;;5077199;27;46383;-71
2023/07/07 03:31:31;;;;;;;22.07;5.83;;;11.80;38.10;;;;;;5078294;27;46443;-71
2023/07/07 03:34:00;;;;;;;14.73;5.87;;;11.80;38.20;;;;;;5077099;27;46326;-71
2023/07/07 03:36:28;;;;;;;12.97;6.30;;;11.90;37.90;;;;;;5080471;27;46621;-71
2023/07/07 03:38:55;;;;;;;14.70;6.03;;;11.90;37.70;;;;;;5080090;27;46388;-71
2023/07/07 03:41:23;;;;;;;14.10;6.40;;;12.00;37.70;;;;;;5078322;27;46438;-71
2023/07/07 03:43:49;;;;;;;12.30;6.63;;;12.10;37.50;;;;;;5079834;27;46446;-72
2023/07/07 03:46:17;;;;;;;15.90;6.60;;;12.10;37.40;;;;;;5080749;27;46512;-71
2023/07/07 03:48:44;;;;;;;20.03;6.00;;;12.20;37.20;;;;;;5078088;27;46533;-72
2023/07/07 03:51:10;;;;;;;10.20;5.43;;;12.30;37.20;;;;;;5080559;27;46766;-71
2023/07/07 03:53:36;;;;;;;15.67;5.33;;;12.40;38.30;;;;;;5079293;27;46762;-71
2023/07/07 03:56:02;;;;;;;15.20;5.53;;;12.50;37.10;;;;;;5074685;27;46871;-71
2023/07/07 03:58:28;;;;;;;13.90;5.57;;;12.50;36.90;;;;;;5075989;27;46979;-72
2023/07/07 04:00:54;;;;;;;22.93;6.60;;;12.50;36.90;;;;;;5075076;27;46688;-72
2023/07/07 04:03:20;;;;;;;13.33;6.53;;;12.60;36.80;;;;;;5062983;27;46494;-71
2023/07/07 04:05:48;;;;;;;17.40;6.33;;;12.80;36.60;;;;;;5077217;27;46705;-70
2023/07/07 04:08:21;;;;;;;14.90;6.23;;;12.90;36.60;;;;;;5076346;27;46573;-71
2023/07/07 04:11:01;;;;;;;14.60;6.13;;;13.10;36.80;;;;;;5078316;27;46484;-71
2023/07/07 04:13:28;;;;;;;21.10;6.87;;;13.20;36.70;;;;;;5077822;27;46720;-71
2023/07/07 04:16:10;;;;;;;20.33;6.77;;;13.30;36.60;;;;;;5076652;27;46410;-70
2023/07/07 04:18:37;;;;;;;13.60;5.00;;;13.40;36.60;;;;;;5077702;27;48025;-71
2023/07/07 04:21:09;;;;;;;14.13;5.53;;;13.40;36.60;;;;;;5071735;27;46785;-72
2023/07/07 04:23:36;;;;;;;16.47;5.80;;;13.40;36.40;;;;;;5078889;27;46414;-71
2023/07/07 04:26:03;;;;;;;15.00;6.37;;;13.40;36.40;;;;;;5079341;27;47343;-72
2023/07/07 04:28:29;;;;;;;16.90;6.47;;;13.50;36.30;;;;;;5078731;27;47099;-72
2023/07/07 04:30:57;;;;;;;13.50;5.70;;;13.60;36.20;;;;;;5077626;27;46814;-71
2023/07/07 04:33:24;;;;;;;18.03;6.93;;;13.70;36.00;;;;;;5076688;27;46550;-72
2023/07/07 04:35:58;;;;;;;10.50;5.90;;;13.80;35.80;;;;;;5078765;27;46528;-71
2023/07/07 04:38:30;;;;;;;12.60;6.17;;;14.00;35.80;;;;;;5077158;27;46534;-72
2023/07/07 04:41:13;;;;;;;19.20;7.10;;;14.10;35.60;;;;;;5075698;27;45835;-72
2023/07/07 04:43:42;;;;;;;11.70;6.70;;;14.40;35.60;;;;;;5071128;27;46555;-71
2023/07/07 04:46:10;;;;;;;16.83;7.67;;;14.50;35.30;;;;;;5078417;27;46665;-72
2023/07/07 04:48:36;;;;;;;17.20;8.07;;;14.90;35.70;;;;;;5077588;27;46096;-73
2023/07/07 04:51:07;;;;;;;16.60;6.53;;;16.20;32.90;;;;;;5075437;27;46669;-72
2023/07/07 04:53:34;;;;;;;11.13;6.37;;;18.10;30.20;;;;;;5077526;27;46451;-71
2023/07/07 04:56:02;;;;;;;13.23;5.90;;;19.70;27.20;;;;;;5055519;27;46516;-73
2023/07/07 04:58:28;;;;;;;16.23;6.23;;;21.00;24.40;;;;;;5081053;27;47228;-71
2023/07/07 05:01:06;;;;;;;10.53;5.70;;;22.10;22.60;;;;;;5075111;27;47180;-72
2023/07/07 05:03:33;;;;;;;13.87;5.83;;;23.10;20.00;;;;;;5075032;27;46412;-71
2023/07/07 05:05:59;;;;;;;14.40;6.27;;;23.30;19.40;;;;;;5080111;27;45874;-72
2023/07/07 05:08:24;;;;;;;17.23;6.07;;;23.90;18.40;;;;;;5080155;27;47186;-72
2023/07/07 05:10:50;;;;;;;13.70;6.27;;;24.60;17.00;;;;;;5081836;27;46253;-70
2023/07/07 05:13:16;;;;;;;10.10;5.23;;;25.10;14.90;;;;;;5078898;27;46368;-72
2023/07/07 05:15:41;;;;;;;11.37;5.00;;;25.80;14.20;;;;;;5082361;27;46495;-71
2023/07/07 05:18:07;;;;;;;9.00;4.90;;;26.30;12.70;;;;;;5083423;27;46423;-72
2023/07/07 05:20:33;;;;;;;10.13;5.83;;;26.60;12.00;;;;;;5081986;27;46474;-71
2023/07/07 05:22:58;;;;;;;11.10;5.87;;;27.20;10.80;;;;;;5078248;27;46407;-72
2023/07/07 05:25:24;;;;;;;15.50;5.47;;;27.50;10.90;;;;;;5077249;27;47203;-74
2023/07/07 05:27:50;;;;;;;10.67;5.80;;;27.80;8.80;;;;;;5080338;27;47342;-71
2023/07/07 05:30:16;;;;;;;10.50;5.67;;;28.00;7.90;;;;;;5077766;27;46734;-73
2023/07/07 05:32:42;;;;;;;9.13;5.50;;;28.40;6.70;;;;;;5078697;27;46404;-70
2023/07/07 05:35:07;;;;;;;11.20;6.07;;;28.60;5.70;;;;;;5078882;27;46584;-72
2023/07/07 05:37:33;;;;;;;10.10;6.17;;;29.10;5.70;;;;;;5079364;27;46669;-71
2023/07/07 05:39:58;;;;;;;10.10;5.90;;;29.40;5.20;;;;;;5064232;27;47029;-71
2023/07/07 05:42:24;;;;;;;10.43;5.90;;;29.80;4.10;;;;;;5079090;27;46512;-71
2023/07/07 05:44:50;;;;;;;10.77;5.97;;;30.10;3.20;;;;;;5077004;27;46693;-71
2023/07/07 05:47:16;;;;;;;12.90;6.87;;;30.20;2.50;;;;;;5081886;27;46554;-72
2023/07/07 05:49:41;;;;;;;14.20;6.13;;;30.50;2.00;;;;;;5078695;27;46531;-71
2023/07/07 05:52:08;;;;;;;12.40;5.87;;;30.60;1.60;;;;;;5079560;27;46466;-71
2023/07/07 05:54:34;;;;;;;11.93;5.53;;;30.50;1.00;;;;;;5079791;27;46482;-71
2023/07/07 05:57:01;;;;;;;10.20;5.60;;;30.50;1.00;;;;;;5078709;27;46730;-70
2023/07/07 05:59:27;;;;;;;10.10;6.87;;;29.20;3.30;;;;;;5082788;27;46601;-70
2023/07/07 06:01:52;;;;;;;9.83;5.20;;;27.60;6.30;;;;;;5074724;27;45871;-70
2023/07/07 06:04:18;;;;;;;10.40;5.97;;;26.40;9.20;;;;;;5080488;27;46432;-70
2023/07/07 06:06:44;;;;;;;7.60;4.83;;;25.50;11.30;;;;;;5079498;27;46574;-71
2023/07/07 06:09:09;;;;;;;9.30;5.47;;;25.00;12.80;;;;;;5078194;27;45838;-70
2023/07/07 06:11:35;;;;;;;8.03;5.20;;;24.60;13.40;;;;;;5076312;27;46496;-73
2023/07/07 06:14:01;;;;;;;12.43;4.90;;;24.20;14.20;;;;;;5059021;27;46517;-71
2023/07/07 06:16:27;;;;;;;11.03;5.30;;;24.10;14.20;;;;;;5079846;27;48018;-72
2023/07/07 06:18:53;;;;;;;11.70;5.73;;;24.00;14.20;;;;;;5065520;27;46452;-68
2023/07/07 06:21:18;;;;;;;9.90;5.67;;;24.00;14.10;;;;;;5064065;28;46438;-71
2023/07/07 06:23:44;;;;;;;9.43;5.40;;;23.80;13.10;;;;;;5064120;28;46713;-68
2023/07/07 06:26:14;;;;;;;11.37;5.83;;;23.70;13.20;;;;;;5062655;28;47143;-74
2023/07/07 06:28:40;;;;;;;12.40;6.27;;;23.60;13.00;;;;;;5062164;28;46496;-71
2023/07/07 06:31:06;;;;;;;10.90;5.57;;;23.60;13.10;;;;;;5042974;28;46456;-69
2023/07/07 06:33:32;;;;;;;9.40;5.10;;;23.50;13.00;;;;;;5064050;28;46494;-69
2023/07/07 06:36:00;;;;;;;8.67;5.10;;;23.70;13.00;;;;;;5065182;28;46789;-70
2023/07/07 06:38:26;;;;;;;8.93;5.40;;;23.70;13.00;;;;;;5062168;28;46415;-68
2023/07/07 06:40:53;;;;;;;9.07;4.80;;;23.80;13.00;;;;;;5065768;28;46256;-70
2023/07/07 06:43:22;;;;;;;9.17;5.07;;;23.80;12.90;;;;;;5045056;28;46519;-69
2023/07/07 06:45:55;;;;;;;12.50;5.60;;;23.50;12.70;;;;;;5062212;28;46416;-70
2023/07/07 06:48:24;;;;;;;17.97;5.50;;;23.30;12.90;;;;;;5033232;28;46819;-68
2023/07/07 06:50:50;;;;;;;14.27;5.63;;;23.50;12.80;;;;;;5059976;28;46540;-69
2023/07/07 06:53:16;;;;;;;10.80;5.80;;;23.50;12.50;;;;;;5047461;28;46479;-71
2023/07/07 06:55:43;;;;;;;9.07;4.77;;;23.50;12.30;;;;;;5059549;28;46475;-68
2023/07/07 06:58:13;;;;;;;12.07;5.20;;;23.60;11.90;;;;;;5049523;28;46931;-70
2023/07/07 07:00:41;;;;;;;13.57;5.60;;;23.70;11.60;;;;;;5062145;28;45822;-69
2023/07/07 07:03:07;;;;;;;10.10;5.60;;;23.80;11.20;;;;;;5063451;28;46487;-70
2023/07/07 07:05:33;;;;;;;9.57;5.20;;;24.00;11.10;;;;;;5044228;28;47702;-69
2023/07/07 07:07:59;;;;;;;8.63;4.93;;;24.20;10.60;;;;;;5045143;28;46547;-69
2023/07/07 07:10:28;;;;;;;12.90;5.30;;;24.30;10.20;;;;;;5061793;28;46422;-68
2023/07/07 07:12:53;;;;;;;8.27;4.40;;;24.50;9.80;;;;;;5061497;28;46825;-69
2023/07/07 07:15:19;;;;;;;8.93;4.93;;;24.60;9.60;;;;;;5064367;28;46399;-68
2023/07/07 07:17:44;;;;;;;8.80;4.87;;;24.70;9.30;;;;;;5059520;28;46465;-71
2023/07/07 07:20:11;;;;;;;11.87;5.27;;;24.80;9.20;;;;;;5061308;28;46519;-69
2023/07/07 07:22:37;;;;;;;9.93;5.30;;;24.80;8.80;;;;;;5058972;28;46432;-69
2023/07/07 07:25:06;;;;;;;10.20;5.50;;;24.80;8.90;;;;;;5060065;28;46579;-71
2023/07/07 07:27:33;;;;;;;9.10;4.80;;;25.00;8.70;;;;;;5060982;28;46680;-68
2023/07/07 07:30:01;;;;;;;10.47;5.60;;;25.10;8.50;;;;;;5026287;28;46462;-69
2023/07/07 07:32:28;;;;;;;9.60;5.30;;;25.20;8.50;;;;;;5059814;28;46559;-70
2023/07/07 07:34:53;;;;;;;14.00;4.67;;;25.40;8.20;;;;;;5059301;28;46490;-70
2023/07/07 07:37:19;;;;;;;15.43;5.00;;;25.50;8.00;;;;;;5061586;28;46900;-71
2023/07/07 07:39:46;;;;;;;10.63;5.27;;;25.60;7.80;;;;;;5047574;28;46290;-71
2023/07/07 07:42:14;;;;;;;9.73;5.50;;;25.60;7.90;;;;;;5060974;28;46411;-68
2023/07/07 07:44:40;;;;;;;9.20;5.10;;;25.70;7.80;;;;;;5060809;28;46718;-71
2023/07/07 07:47:06;;;;;;;12.43;5.10;;;25.90;7.80;;;;;;5059325;28;46489;-69
2023/07/07 07:49:33;;;;;;;9.63;5.87;;;26.00;7.50;;;;;;5045368;28;46614;-70
2023/07/07 07:51:58;;;;;;;9.20;4.83;;;26.00;7.10;;;;;;5048013;28;46047;-69
2023/07/07 07:54:27;;;;;;;11.50;5.10;;;26.10;6.70;;;;;;5064749;28;46742;-70
2023/07/07 07:56:53;;;;;;;12.50;5.33;;;25.80;4.20;;;;;;5059245;28;45881;-68
2023/07/07 07:59:19;;;;;;;11.13;4.97;;;25.70;4.50;;;;;;5046017;28;46555;-67
2023/07/07 08:01:46;;;;;;;10.80;4.70;;;25.70;5.20;;;;;;5063692;28;46454;-72
2023/07/07 08:04:12;;;;;;;10.90;4.80;;;25.60;5.00;;;;;;5061786;28;46493;-67
2023/07/07 08:06:40;;;;;;;12.23;5.80;;;25.60;4.80;;;;;;5045076;28;46863;-69
2023/07/07 08:09:07;;;;;;;8.73;4.80;;;25.60;4.70;;;;;;5043602;28;46678;-70
2023/07/07 08:11:42;;;;;;;10.60;5.50;;;25.70;4.30;;;;;;5061628;28;46687;-68
2023/07/07 08:14:21;;;;;;;9.30;4.60;;;25.80;3.90;;;;;;5063039;28;46697;-69
2023/07/07 08:16:54;;;;;;;7.67;4.97;;;25.70;3.80;;;;;;5057464;28;46499;-69
2023/07/07 08:19:22;;;;;;;11.10;5.23;;;25.60;3.80;;;;;;5066284;28;46753;-69
2023/07/07 08:21:48;;;;;;;10.20;5.20;;;25.60;2.90;;;;;;5048737;28;46471;-70
2023/07/07 08:24:15;;;;;;;10.30;5.30;;;25.50;3.70;;;;;;5043141;28;48783;-68
2023/07/07 08:26:46;;;;;;;9.80;5.17;;;25.80;3.90;;;;;;5046022;28;46468;-67
2023/07/07 08:29:12;;;;;;;9.43;5.17;;;25.80;3.50;;;;;;5040909;28;46735;-69
2023/07/07 08:31:39;;;;;;;11.13;5.00;;;26.00;3.40;;;;;;5073526;22;46621;-70
2023/07/07 08:34:10;;;;;;;8.37;5.03;;;26.10;3.30;;;;;;5039647;28;47153;-69
2023/07/07 08:36:36;;;;;;;9.90;5.03;;;26.00;3.00;;;;;;5036589;28;46616;-69
2023/07/07 08:39:12;;;;;;;10.83;5.27;;;26.30;2.70;;;;;;5039094;28;46638;-67
2023/07/07 08:41:43;;;;;;;9.83;5.07;;;26.40;1.40;;;;;;5032037;28;46540;-69
2023/07/07 08:44:14;;;;;;;8.97;5.20;;;26.50;1.50;;;;;;5052914;28;46427;-68
2023/07/07 08:46:52;;;;;;;8.10;4.73;;;26.40;1.00;;;;;;5055522;28;46442;-68
2023/07/07 08:49:27;;;;;;;10.00;4.90;;;26.40;1.00;;;;;;5056555;28;46466;-68
2023/07/07 08:52:07;;;;;;;9.63;5.13;;;26.30;1.00;;;;;;5057567;28;46756;-68
2023/07/07 08:54:39;;;;;;;16.33;4.97;;;26.20;1.00;;;;;;5054611;28;46436;-68
2023/07/07 08:57:11;;;;;;;10.23;5.20;;;26.30;1.00;;;;;;5056470;28;46534;-68
2023/07/07 08:59:51;;;;;;;9.73;4.97;;;26.30;1.00;;;;;;5056010;28;45908;-68
2023/07/07 09:02:46;;;;;;;12.70;4.53;;;26.50;1.00;;;;;;5057617;28;46521;-68
2023/07/07 09:05:24;;;;;;;8.83;5.27;;;26.80;1.00;;;;;;5054857;28;47043;-68
2023/07/07 09:08:03;;;;;;;7.90;4.83;;;27.10;1.00;;;;;;5058372;28;45805;-68
2023/07/07 09:10:35;;;;;;;8.97;5.30;;;27.10;1.00;;;;;;5056967;28;46526;-68
2023/07/07 09:13:28;;;;;;;10.88;6.20;;;27.10;1.00;;;;;;5031972;28;46495;-71
2023/07/07 09:16:13;;;;;;;11.10;5.90;;;26.80;1.00;;;;;;5048971;28;47493;-67
2023/07/07 09:19:05;;;;;;;10.47;5.53;;;26.70;1.00;;;;;;5060306;28;46653;-67
2023/07/07 09:21:42;;;;;;;10.73;5.87;;;26.60;1.00;;;;;;5059565;28;46623;-69
2023/07/07 09:24:36;;;;;;;11.93;5.43;;;26.60;1.00;;;;;;5042058;28;45924;-71
2023/07/07 09:27:12;;;;;;;10.70;5.40;;;26.70;1.00;;;;;;5045953;28;46421;-71
2023/07/07 09:29:39;;;;;;;8.67;5.40;;;26.90;1.00;;;;;;5066211;28;46483;-70
2023/07/07 09:32:17;;;;;;;7.67;4.97;;;27.00;1.00;;;;;;5058279;28;46749;-68
2023/07/07 09:34:43;;;;;;;10.90;5.17;;;26.90;1.00;;;;;;5035262;28;46571;-72
2023/07/07 09:37:31;;;;;;;10.27;5.20;;;26.80;1.00;;;;;;5061518;28;46496;-69
2023/07/07 09:40:14;;;;;;;8.43;5.43;;;26.80;1.00;;;;;;5059866;28;46167;-69
2023/07/07 09:43:02;;;;;;;8.43;5.17;;;27.10;1.00;;;;;;5061713;28;46351;-70
2023/07/07 09:45:52;;;;;;;8.90;5.20;;;27.20;1.00;;;;;;5048805;28;46684;-69
2023/07/07 09:49:07;;;;;;;11.27;5.40;;;27.20;1.00;;;;;;5059530;28;46169;-71
2023/07/07 09:51:55;;;;;;;13.20;6.17;;;27.30;1.00;;;;;;4974318;28;46882;-71
2023/07/07 09:54:23;;;;;;;8.90;5.20;;;27.30;1.00;;;;;;5061338;28;46399;-73
2023/07/07 09:57:22;;;;;;;10.90;5.77;;;27.30;1.00;;;;;;5063704;28;46108;-68
2023/07/07 09:59:50;;;;;;;8.37;5.40;;;27.30;1.00;;;;;;5058728;28;46964;-71
2023/07/07 10:02:22;;;;;;;12.30;5.10;;;27.30;1.00;;;;;;5044396;28;46718;-68
2023/07/07 10:05:09;;;;;;;8.70;5.47;;;27.30;1.00;;;;;;5066981;28;46550;-70
2023/07/07 10:07:38;;;;;;;12.23;5.80;;;27.40;1.00;;;;;;5064208;28;46484;-72
2023/07/07 10:10:06;;;;;;;11.47;5.97;;;27.40;1.00;;;;;;5060980;28;47272;-69
2023/07/07 10:12:32;;;;;;;8.60;5.30;;;27.20;1.00;;;;;;5068192;28;45862;-67
2023/07/07 10:14:59;;;;;;;10.17;5.50;;;27.20;1.00;;;;;;5061906;28;45894;-68
2023/07/07 10:17:58;;;;;;;9.83;5.40;;;27.20;1.00;;;;;;5061543;28;46674;-68
2023/07/07 10:20:27;;;;;;;8.63;4.53;;;27.30;1.00;;;;;;5066479;28;46360;-69
2023/07/07 10:22:53;;;;;;;9.73;5.10;;;27.40;1.00;;;;;;5062050;28;46442;-69
2023/07/07 10:25:22;;;;;;;9.70;5.13;;;27.50;1.00;;;;;;5064174;28;46682;-68
2023/07/07 10:27:52;;;;;;;9.40;5.40;;;27.70;1.00;;;;;;5062666;28;46368;-68
2023/07/07 10:30:20;;;;;;;12.17;4.80;;;27.60;1.00;;;;;;5065149;28;46887;-69
2023/07/07 10:32:49;;;;;;;9.00;4.60;;;27.50;1.00;;;;;;5048002;28;46722;-70
2023/07/07 10:35:23;;;;;;;10.23;6.00;;;27.50;1.00;;;;;;5034764;28;46417;-69
2023/07/07 10:37:51;;;;;;;9.00;5.50;;;27.60;1.00;;;;;;5046239;28;46180;-68
2023/07/07 10:40:25;;;;;;;11.47;5.80;;;27.60;1.00;;;;;;5021568;28;46707;-72
2023/07/07 10:42:53;;;;;;;10.93;5.90;;;27.80;1.00;;;;;;5047878;28;45798;-70
2023/07/07 10:45:21;;;;;;;10.03;5.60;;;28.00;1.00;;;;;;5048427;28;46223;-69
2023/07/07 10:47:51;;;;;;;9.27;5.87;;;27.80;1.00;;;;;;5048676;28;46476;-68
2023/07/07 10:50:23;;;;;;;10.70;6.60;;;27.70;1.00;;;;;;5065186;28;46473;-73
2023/07/07 10:52:55;;;;;;;10.60;6.53;;;27.70;1.00;;;;;;5060456;28;46722;-71
2023/07/07 10:55:46;;;;;;;10.27;5.37;;;27.50;1.00;;;;;;5061416;28;46201;-72
2023/07/07 10:58:49;;;;;;;9.50;5.40;;;27.60;1.00;;;;;;5061008;28;45863;-67
2023/07/07 11:01:37;;;;;;;10.13;5.80;;;27.70;1.00;;;;;;5059335;28;46478;-71
2023/07/07 11:04:21;;;;;;;9.70;6.03;;;27.70;1.00;;;;;;5062736;28;46511;-70
2023/07/07 11:07:07;;;;;;;11.60;5.83;;;27.60;1.00;;;;;;5052066;28;46356;-70
2023/07/07 11:09:56;;;;;;;10.47;5.87;;;27.70;1.00;;;;;;5052696;28;46816;-68
2023/07/07 11:13:01;;;;;;;14.27;6.53;;;27.60;1.00;;;;;;5068135;28;46068;-70
2023/07/07 11:15:42;;;;;;;10.40;5.47;;;27.60;1.00;;;;;;5050147;28;45882;-68
2023/07/07 11:18:12;;;;;;;10.03;6.07;;;27.70;1.00;;;;;;5025863;28;46472;-69
2023/07/07 11:21:12;;;;;;;10.27;6.03;;;27.90;1.00;;;;;;5062809;28;46374;-67
2023/07/07 11:24:12;;;;;;;13.43;6.37;;;27.90;1.00;;;;;;5063545;28;46417;-67
2023/07/07 11:27:03;;;;;;;11.00;6.90;;;28.00;1.00;;;;;;5065375;28;46779;-67
2023/07/07 11:29:42;;;;;;;11.43;5.87;;;28.20;1.00;;;;;;5066775;28;46916;-70
2023/07/07 11:32:35;;;;;;;11.17;6.23;;;28.40;1.00;;;;;;5026462;28;46472;-67
2023/07/07 11:35:22;;;;;;;10.87;5.97;;;28.30;1.00;;;;;;5062037;28;46695;-69
2023/07/07 11:38:10;;;;;;;11.70;6.73;;;27.90;1.00;;;;;;5044548;28;46475;-67
2023/07/07 11:40:44;;;;;;;12.13;6.60;;;27.80;1.00;;;;;;5060672;28;46507;-68
2023/07/07 11:43:22;;;;;;;11.43;7.20;;;27.90;1.00;;;;;;5062189;28;46399;-68
2023/07/07 11:46:11;;;;;;;10.80;6.13;;;28.10;1.00;;;;;;5066169;28;46794;-67
2023/07/07 11:48:49;;;;;;;11.37;6.80;;;28.10;1.00;;;;;;5036620;28;46477;-68
2023/07/07 11:52:02;;;;;;;15.23;6.40;;;28.10;1.00;;;;;;5060583;28;46481;-68
2023/07/07 11:55:04;;;;;;;9.90;5.87;;;28.20;1.00;;;;;;5062034;28;45915;-69
2023/07/07 11:57:48;;;;;;;14.30;6.80;;;28.30;1.00;;;;;;5039210;28;46508;-67
2023/07/07 12:00:40;;;;;;;11.80;6.70;;;28.10;1.00;;;;;;5054635;28;46461;-68
2023/07/07 12:03:30;;;;;;;11.20;5.80;;;28.20;1.00;;;;;;5051684;28;45948;-67
2023/07/07 12:06:02;;;;;;;9.73;6.30;;;28.20;1.00;;;;;;5053508;28;46024;-67
2023/07/07 12:08:45;;;;;;;11.30;6.17;;;28.00;1.00;;;;;;5050967;28;47428;-68
2023/07/07 12:11:14;;;;;;;13.63;6.20;;;28.10;1.00;;;;;;5057059;28;46849;-67
2023/07/07 12:14:03;;;;;;;11.00;6.83;;;28.20;1.00;;;;;;5047053;28;46929;-67
2023/07/07 12:16:30;;;;;;;14.47;6.13;;;28.20;1.00;;;;;;5051575;28;46594;-67
2023/07/07 12:19:03;;;;;;;14.10;6.33;;;28.20;1.00;;;;;;5048990;28;46182;-68
2023/07/07 12:21:33;;;;;;;9.77;6.07;;;28.30;1.00;;;;;;5052893;28;46427;-67
2023/07/07 12:24:11;;;;;;;10.47;5.97;;;28.40;1.00;;;;;;5054352;28;46481;-68
2023/07/07 12:26:44;;;;;;;10.03;5.97;;;28.60;1.00;;;;;;5053368;28;46495;-67
2023/07/07 12:29:12;;;;;;;10.33;5.93;;;28.60;1.00;;;;;;5053910;28;46543;-67
2023/07/07 12:31:37;;;;;;;9.97;6.23;;;28.60;1.00;;;;;;5052663;28;46324;-67
2023/07/07 12:34:42;;;;;;;12.90;6.50;;;28.60;1.00;;;;;;5057858;28;46496;-68
2023/07/07 12:37:15;;;;;;;11.83;6.90;;;28.70;1.00;;;;;;5053008;28;46871;-67
2023/07/07 12:39:57;;;;;;;13.83;7.50;;;28.60;1.00;;;;;;5051550;28;46065;-68
2023/07/07 12:42:28;;;;;;;14.60;7.53;;;28.70;1.00;;;;;;5051315;28;45928;-66
2023/07/07 12:44:55;;;;;;;10.20;6.60;;;28.90;1.00;;;;;;5055307;28;46393;-67
2023/07/07 12:47:31;;;;;;;10.27;6.07;;;28.70;1.00;;;;;;5056703;28;46443;-66
2023/07/07 12:50:00;;;;;;;9.23;5.90;;;28.70;1.00;;;;;;5058878;28;47088;-67
2023/07/07 12:52:40;;;;;;;14.53;6.00;;;28.70;1.00;;;;;;5056478;28;46391;-68
2023/07/07 12:55:30;;;;;;;12.33;6.60;;;28.80;1.00;;;;;;5052210;28;46413;-67
2023/07/07 12:58:16;;;;;;;10.63;5.87;;;28.70;1.00;;;;;;5059453;28;46468;-67
2023/07/07 13:00:43;;;;;;;10.67;6.20;;;28.60;1.00;;;;;;5061992;28;46290;-68
2023/07/07 13:03:09;;;;;;;10.43;5.83;;;28.70;1.00;;;;;;5053170;28;47195;-67
2023/07/07 13:05:42;;;;;;;10.93;6.80;;;28.80;1.00;;;;;;5054651;28;46594;-66
2023/07/07 13:08:08;;;;;;;34.73;7.30;;;28.80;1.00;;;;;;5059141;28;46449;-67
2023/07/07 13:10:49;;;;;;;10.07;5.50;;;28.70;1.00;;;;;;5056375;28;47364;-67